Fairchem Colt — V7KS9 — position and weather

sailwx.info

Track history (hours):
 
Tides and Currents Weather Stations Pressure Air Temp Water Temp Dewpoint Dewpoint Depression Visibility Wind Speed Wind Dir Waves Ship Positions

Fairchem Colt

Last reported at 2017-Dec-18 12:30 UTC. Time now 2017-Dec-18 12:56 UTC.
Position N 55°04' E 011°02'.

Length 146 m; draft 10.2 m.

Type: Ship. MMSI: 538006225.

Date/timePositionNaut miles runAvg speedWind from/ knotsBaromVisibWave heightAir tempDewpointWater temp
2017-Dec-18 12:30N 55°04' E 011°02'713.1
2017-Dec-18 12:00N 54°58' E 010°57'713.9
2017-Dec-18 11:30N 54°52' E 010°50'713.9
2017-Dec-18 11:00N 54°46' E 010°48'5 9.7
2017-Dec-18 10:30N 54°41' E 010°47'1 1.1
2017-Dec-18 10:00N 54°41' E 010°47'2 3.6
2017-Dec-18 09:30N 54°40' E 010°50'4 7.9
2017-Dec-18 09:00N 54°38' E 010°56'510.6
2017-Dec-18 08:30N 54°36' E 011°05'611.5
2017-Dec-18 08:00N 54°35' E 011°15'612.2
2017-Dec-18 07:30N 54°33' E 011°24'612.2
2017-Dec-18 07:00N 54°30' E 011°34'612.3
2017-Dec-18 06:30N 54°27' E 011°43'611.8
2017-Dec-18 06:00N 54°26' E 011°53'612.0
2017-Dec-18 05:30N 54°26' E 012°03'510.8
2017-Dec-18 05:00N 54°28' E 012°12'5810.8
2017-Dec-17 23:41N 54°59' E 013°37'1111.5
2017-Dec-17 22:42N 55°02' E 013°55'1011.0
2017-Dec-17 21:46N 55°08' E 014°10'311.2
2017-Dec-17 21:30N 55°10' E 014°13'610.7
2017-Dec-17 20:56N 55°15' E 014°20'511.7
2017-Dec-17 20:30N 55°19' E 014°25'611.9
2017-Dec-17 19:59N 55°24' E 014°32'711.9
2017-Dec-17 19:26N 55°28' E 014°41'712.1
2017-Dec-17 18:53N 55°31' E 014°52'512.1
2017-Dec-17 18:28N 55°33' E 014°60'611.9
2017-Dec-17 18:00N 55°36' E 015°09'611.9
2017-Dec-17 17:30N 55°38' E 015°18'612.0
2017-Dec-17 17:00N 55°40' E 015°28'612.3
2017-Dec-17 16:30N 55°41' E 015°39'612.3
2017-Dec-17 16:00N 55°43' E 015°49'612.3
2017-Dec-17 15:30N 55°44' E 015°60'612.3
2017-Dec-17 15:00N 55°46' E 016°11'612.2
2017-Dec-17 14:30N 55°47' E 016°21'611.9
2017-Dec-17 13:58N 55°49' E 016°32'25710.3
2017-Dec-16 13:07N 59°45' E 019°44'312.6
2017-Dec-16 12:51N 59°47' E 019°40'512.8
2017-Dec-16 12:30N 59°51' E 019°34'612.7
2017-Dec-16 12:00N 59°56' E 019°26'612.9
2017-Dec-16 11:30N 60°01' E 019°18'713.0
2017-Dec-16 11:00N 60°06' E 019°09'612.6
2017-Dec-16 10:30N 60°11' E 019°01'612.9
2017-Dec-16 10:00N 60°17' E 018°60'712.9
2017-Dec-16 09:30N 60°24' E 018°60'  
2017-Dec-11 22:40N 60°20' E 019°01'213.8
2017-Dec-11 22:30N 60°18' E 019°01'713.5
2017-Dec-11 21:59N 60°11' E 019°07'713.8
2017-Dec-11 21:30N 60°06' E 019°15'714.0
2017-Dec-11 21:00N 60°01' E 019°24'713.6
2017-Dec-11 20:28N 59°55' E 019°33'277 8.0
2017-Dec-10 09:57N 55°41' E 016°09'511.9
2017-Dec-10 09:31N 55°42' E 015°59'612.1
2017-Dec-10 09:00N 55°41' E 015°49'612.3
2017-Dec-10 08:31N 55°39' E 015°38'812.3
2017-Dec-10 07:51N 55°37' E 015°25'512.4
2017-Dec-10 07:26N 55°36' E 015°16'712.4
2017-Dec-10 06:52N 55°32' E 015°05'512.4
2017-Dec-10 06:29N 55°30' E 014°57'612.4
2017-Dec-10 06:00N 55°27' E 014°49'612.3
2017-Dec-10 05:30N 55°24' E 014°39'612.3
2017-Dec-10 05:00N 55°19' E 014°32'612.1
2017-Dec-10 04:30N 55°14' E 014°26'611.7
2017-Dec-10 04:00N 55°11' E 014°18'712.5
2017-Dec-10 03:25N 55°10' E 014°05'1312.6
2017-Dec-10 02:25N 55°08' E 013°43'2110.1
2017-Dec-10 00:20N 55°10' E 013°06'512.1
2017-Dec-09 23:54N 55°12' E 012°58'712.6
2017-Dec-09 23:21N 55°16' E 012°47'412.9
2017-Dec-09 23:01N 55°17' E 012°40'510.5
2017-Dec-09 22:31N 55°23' E 012°39'510.7
2017-Dec-09 22:00N 55°28' E 012°40'2 5.0
2017-Dec-09 21:30N 55°30' E 012°42'3 6.4
2017-Dec-09 21:01N 55°33' E 012°42'5 9.8
2017-Dec-09 20:30N 55°38' E 012°42'713.2
2017-Dec-09 20:01N 55°45' E 012°41'5 9.9
2017-Dec-09 19:31N 55°50' E 012°42'713.2
2017-Dec-09 19:00N 55°56' E 012°38'4 8.5
2017-Dec-09 18:31N 56°00' E 012°37'2 4.9
2017-Dec-09 18:00N 56°03' E 012°39'612.7
2017-Dec-09 17:30N 56°07' E 012°31'510.7
2017-Dec-09 17:00N 56°10' E 012°23'611.7
2017-Dec-09 16:28N 56°14' E 012°13'5311.0
2017-Dec-09 11:41N 57°03' E 011°39'211.7
2017-Dec-09 11:29N 57°05' E 011°38'611.6
2017-Dec-09 11:00N 57°10' E 011°35'611.2
2017-Dec-09 10:30N 57°16' E 011°31'510.9
2017-Dec-09 10:00N 57°21' E 011°28'611.4
2017-Dec-09 09:30N 57°26' E 011°25'611.4
2017-Dec-09 09:00N 57°31' E 011°18'510.3
2017-Dec-09 08:30N 57°34' E 011°10'510.1
2017-Dec-09 08:00N 57°38' E 011°04'611.8
2017-Dec-09 07:30N 57°42' E 010°56'612.4
2017-Dec-09 07:00N 57°46' E 010°48'612.1
2017-Dec-09 06:30N 57°48' E 010°37'712.6
2017-Dec-09 05:57N 57°48' E 010°24'  
Track history (hours):
 
Tides and Currents Weather Stations Pressure Air Temp Water Temp Dewpoint Dewpoint Depression Visibility Wind Speed Wind Dir Waves Ship Positions

Fairchem Colt

Last reported at 2017-Dec-18 12:30 UTC. Time now 2017-Dec-18 12:56 UTC.
Position N 55°04' E 011°02'.

Length 146 m; draft 10.2 m.

Type: Ship. MMSI: 538006225.

Date/timePositionNaut miles runAvg speedWind from/ knotsBaromVisibWave heightAir tempDewpointWater temp
2017-Dec-18 12:30N 55°04' E 011°02'713.1
2017-Dec-18 12:00N 54°58' E 010°57'713.9
2017-Dec-18 11:30N 54°52' E 010°50'713.9
2017-Dec-18 11:00N 54°46' E 010°48'5 9.7
2017-Dec-18 10:30N 54°41' E 010°47'1 1.1
2017-Dec-18 10:00N 54°41' E 010°47'2 3.6
2017-Dec-18 09:30N 54°40' E 010°50'4 7.9
2017-Dec-18 09:00N 54°38' E 010°56'510.6
2017-Dec-18 08:30N 54°36' E 011°05'611.5
2017-Dec-18 08:00N 54°35' E 011°15'612.2
2017-Dec-18 07:30N 54°33' E 011°24'612.2
2017-Dec-18 07:00N 54°30' E 011°34'612.3
2017-Dec-18 06:30N 54°27' E 011°43'611.8
2017-Dec-18 06:00N 54°26' E 011°53'612.0
2017-Dec-18 05:30N 54°26' E 012°03'510.8
2017-Dec-18 05:00N 54°28' E 012°12'5810.8
2017-Dec-17 23:41N 54°59' E 013°37'1111.5
2017-Dec-17 22:42N 55°02' E 013°55'1011.0
2017-Dec-17 21:46N 55°08' E 014°10'311.2
2017-Dec-17 21:30N 55°10' E 014°13'610.7
2017-Dec-17 20:56N 55°15' E 014°20'511.7
2017-Dec-17 20:30N 55°19' E 014°25'611.9
2017-Dec-17 19:59N 55°24' E 014°32'711.9
2017-Dec-17 19:26N 55°28' E 014°41'712.1
2017-Dec-17 18:53N 55°31' E 014°52'512.1
2017-Dec-17 18:28N 55°33' E 014°60'611.9
2017-Dec-17 18:00N 55°36' E 015°09'611.9
2017-Dec-17 17:30N 55°38' E 015°18'612.0
2017-Dec-17 17:00N 55°40' E 015°28'612.3
2017-Dec-17 16:30N 55°41' E 015°39'612.3
2017-Dec-17 16:00N 55°43' E 015°49'612.3
2017-Dec-17 15:30N 55°44' E 015°60'612.3
2017-Dec-17 15:00N 55°46' E 016°11'612.2
2017-Dec-17 14:30N 55°47' E 016°21'611.9
2017-Dec-17 13:58N 55°49' E 016°32'25710.3
2017-Dec-16 13:07N 59°45' E 019°44'312.6
2017-Dec-16 12:51N 59°47' E 019°40'512.8
2017-Dec-16 12:30N 59°51' E 019°34'612.7
2017-Dec-16 12:00N 59°56' E 019°26'612.9
2017-Dec-16 11:30N 60°01' E 019°18'713.0
2017-Dec-16 11:00N 60°06' E 019°09'612.6
2017-Dec-16 10:30N 60°11' E 019°01'612.9
2017-Dec-16 10:00N 60°17' E 018°60'712.9
2017-Dec-16 09:30N 60°24' E 018°60'  
2017-Dec-11 22:40N 60°20' E 019°01'213.8
2017-Dec-11 22:30N 60°18' E 019°01'713.5
2017-Dec-11 21:59N 60°11' E 019°07'713.8
2017-Dec-11 21:30N 60°06' E 019°15'714.0
2017-Dec-11 21:00N 60°01' E 019°24'713.6
2017-Dec-11 20:28N 59°55' E 019°33'277 8.0
2017-Dec-10 09:57N 55°41' E 016°09'511.9
2017-Dec-10 09:31N 55°42' E 015°59'612.1
2017-Dec-10 09:00N 55°41' E 015°49'612.3
2017-Dec-10 08:31N 55°39' E 015°38'812.3
2017-Dec-10 07:51N 55°37' E 015°25'512.4
2017-Dec-10 07:26N 55°36' E 015°16'712.4
2017-Dec-10 06:52N 55°32' E 015°05'512.4
2017-Dec-10 06:29N 55°30' E 014°57'612.4
2017-Dec-10 06:00N 55°27' E 014°49'612.3
2017-Dec-10 05:30N 55°24' E 014°39'612.3
2017-Dec-10 05:00N 55°19' E 014°32'612.1
2017-Dec-10 04:30N 55°14' E 014°26'611.7
2017-Dec-10 04:00N 55°11' E 014°18'712.5
2017-Dec-10 03:25N 55°10' E 014°05'1312.6
2017-Dec-10 02:25N 55°08' E 013°43'2110.1
2017-Dec-10 00:20N 55°10' E 013°06'512.1
2017-Dec-09 23:54N 55°12' E 012°58'712.6
2017-Dec-09 23:21N 55°16' E 012°47'412.9
2017-Dec-09 23:01N 55°17' E 012°40'510.5
2017-Dec-09 22:31N 55°23' E 012°39'510.7
2017-Dec-09 22:00N 55°28' E 012°40'2 5.0
2017-Dec-09 21:30N 55°30' E 012°42'3 6.4
2017-Dec-09 21:01N 55°33' E 012°42'5 9.8
2017-Dec-09 20:30N 55°38' E 012°42'713.2
2017-Dec-09 20:01N 55°45' E 012°41'5 9.9
2017-Dec-09 19:31N 55°50' E 012°42'713.2
2017-Dec-09 19:00N 55°56' E 012°38'4 8.5
2017-Dec-09 18:31N 56°00' E 012°37'2 4.9
2017-Dec-09 18:00N 56°03' E 012°39'612.7
2017-Dec-09 17:30N 56°07' E 012°31'510.7
2017-Dec-09 17:00N 56°10' E 012°23'611.7
2017-Dec-09 16:28N 56°14' E 012°13'5311.0
2017-Dec-09 11:41N 57°03' E 011°39'211.7
2017-Dec-09 11:29N 57°05' E 011°38'611.6
2017-Dec-09 11:00N 57°10' E 011°35'611.2
2017-Dec-09 10:30N 57°16' E 011°31'510.9
2017-Dec-09 10:00N 57°21' E 011°28'611.4
2017-Dec-09 09:30N 57°26' E 011°25'611.4
2017-Dec-09 09:00N 57°31' E 011°18'510.3
2017-Dec-09 08:30N 57°34' E 011°10'510.1
2017-Dec-09 08:00N 57°38' E 011°04'611.8
2017-Dec-09 07:30N 57°42' E 010°56'612.4
2017-Dec-09 07:00N 57°46' E 010°48'612.1
2017-Dec-09 06:30N 57°48' E 010°37'712.6
2017-Dec-09 05:57N 57°48' E 010°24'  

Dump ship's entire track history